VHHH

Hong Kong International Airport

Airport
ICAO code
VHHH
IATA Code
HKG
Summary
ICAO Region
APAC
ICAO Territory
Location

Chek Lap Kok Island,

Serving
Hong Kong
Elevation
30 ft
Coordinates
22° 18' 32" N , 113° 54' 53" E
KCC
Airport BS
Bird Strike
Airport LOS
Parallel Runway Operation
Metar
Observation
VHHH 070330Z 33010KT 9999 FEW045 19/10 Q1020 NOSIG
Station
Hong Kong Inter-National Airport
Date/Time
2022-12-07 03:30:00
Wind direction
330°
Wind speed
10 kts
Lowest cloud amount
few clouds
Temperature
19°C
Dew point
10°C
Humidity
55%
QNH
1020 hPa
Weather condition
n/a

Description

Hong Kong International Airport is the main airport in Hong Kong. It is colloquially known as Chek Lap Kok Airport, because it is located on the island of Chek Lap Kok using land reclamation. This also distinguishes it from its previous location at Kai Tak which closed in July 1998 .

Climatology

Humid “subtropical” climate (Köppen climate classification Cwa) - characterized by hot, humid summers and cool winters. Winter months are drier than the summer months. Winter rainfall (and sometimes snowfall) is associated with large storms that the westerlies steer from west to east. Most summer rainfall occurs during thunderstorms and the area is subject to frequent tropical typhoons.

SKYbrary Partners:

Safety knowledge contributed by: